sensor_id;sensor_type;location;lat;lon;timestamp;pressure;altitude;pressure_sealevel;temperature;humidity
40013;BME280;37387;42.672;23.334;2022-08-21T00:01:06;940.0;;;18.1;100.0
40013;BME280;37387;42.672;23.334;2022-08-21T00:02:12;940.0;;;18.0;100.0
40013;BME280;37387;42.672;23.334;2022-08-21T00:08:05;939.8;;;17.9;100.0
40013;BME280;37387;42.672;23.334;2022-08-21T00:09:06;939.9;;;18.0;100.0
40013;BME280;37387;42.672;23.334;2022-08-21T00:13:05;939.9;;;18.1;100.0
40013;BME280;37387;42.672;23.334;2022-08-21T00:21:05;939.7;;;18.2;100.0
40013;BME280;37387;42.672;23.334;2022-08-21T00:25:05;939.8;;;18.1;100.0
40013;BME280;37387;42.672;23.334;2022-08-21T00:28:05;939.7;;;18.2;100.0
40013;BME280;37387;42.672;23.334;2022-08-21T00:32:05;939.7;;;18.3;100.0
40013;BME280;37387;42.672;23.334;2022-08-21T00:35:05;939.7;;;18.4;100.0
40013;BME280;37387;42.672;23.334;2022-08-21T00:37:05;939.6;;;18.3;100.0
40013;BME280;37387;42.672;23.334;2022-08-21T00:38:05;939.6;;;18.2;100.0
40013;BME280;37387;42.672;23.334;2022-08-21T00:40:06;939.7;;;18.3;100.0
40013;BME280;37387;42.672;23.334;2022-08-21T00:42:05;939.7;;;18.4;100.0
40013;BME280;37387;42.672;23.334;2022-08-21T00:47:05;939.8;;;18.3;100.0
40013;BME280;37387;42.672;23.334;2022-08-21T00:49:05;939.8;;;18.4;100.0
40013;BME280;37387;42.672;23.334;2022-08-21T00:51:08;939.8;;;18.3;100.0
40013;BME280;37387;42.672;23.334;2022-08-21T00:52:05;939.8;;;18.4;100.0
40013;BME280;37387;42.672;23.334;2022-08-21T00:54:05;939.8;;;18.5;100.0
40013;BME280;37387;42.672;23.334;2022-08-21T00:55:05;939.8;;;18.6;100.0
40013;BME280;37387;42.672;23.334;2022-08-21T00:57:07;939.8;;;18.5;100.0
40013;BME280;37387;42.672;23.334;2022-08-21T00:58:05;939.7;;;18.4;100.0
40013;BME280;37387;42.672;23.334;2022-08-21T00:59:05;939.7;;;18.3;100.0
40013;BME280;37387;42.672;23.334;2022-08-21T01:03:05;939.7;;;18.4;100.0
40013;BME280;37387;42.672;23.334;2022-08-21T01:05:05;939.6;;;18.3;100.0
40013;BME280;37387;42.672;23.334;2022-08-21T01:06:05;939.4;;;18.4;100.0
40013;BME280;37387;42.672;23.334;2022-08-21T01:07:04;939.7;;;18.3;100.0
40013;BME280;37387;42.672;23.334;2022-08-21T01:09:05;939.6;;;18.4;100.0
40013;BME280;37387;42.672;23.334;2022-08-21T01:11:05;939.6;;;18.5;100.0
40013;BME280;37387;42.672;23.334;2022-08-21T01:14:05;939.6;;;18.6;100.0
40013;BME280;37387;42.672;23.334;2022-08-21T01:24:05;939.4;;;18.5;100.0
40013;BME280;37387;42.672;23.334;2022-08-21T01:26:05;939.4;;;18.4;100.0
40013;BME280;37387;42.672;23.334;2022-08-21T01:27:05;939.4;;;18.3;100.0
40013;BME280;37387;42.672;23.334;2022-08-21T01:28:06;939.5;;;18.2;100.0
40013;BME280;37387;42.672;23.334;2022-08-21T01:29:05;939.5;;;18.3;100.0
40013;BME280;37387;42.672;23.334;2022-08-21T01:30:08;939.4;;;18.2;100.0
40013;BME280;37387;42.672;23.334;2022-08-21T01:32:07;939.5;;;18.3;100.0
40013;BME280;37387;42.672;23.334;2022-08-21T01:37:05;939.4;;;18.4;100.0
40013;BME280;37387;42.672;23.334;2022-08-21T01:39:05;939.5;;;18.3;100.0
40013;BME280;37387;42.672;23.334;2022-08-21T01:42:05;939.5;;;18.4;100.0
40013;BME280;37387;42.672;23.334;2022-08-21T01:47:05;939.6;;;18.3;100.0
40013;BME280;37387;42.672;23.334;2022-08-21T01:48:05;939.6;;;18.2;100.0
40013;BME280;37387;42.672;23.334;2022-08-21T01:49:05;939.6;;;18.0;100.0
40013;BME280;37387;42.672;23.334;2022-08-21T01:56:06;939.5;;;17.9;100.0
40013;BME280;37387;42.672;23.334;2022-08-21T02:00:05;939.6;;;17.8;100.0
40013;BME280;37387;42.672;23.334;2022-08-21T02:02:05;939.6;;;17.9;100.0
40013;BME280;37387;42.672;23.334;2022-08-21T02:05:05;939.6;;;18.0;100.0
40013;BME280;37387;42.672;23.334;2022-08-21T02:06:05;939.6;;;17.9;100.0
40013;BME280;37387;42.672;23.334;2022-08-21T02:16:05;939.7;;;18.0;100.0
40013;BME280;37387;42.672;23.334;2022-08-21T02:22:05;939.8;;;17.9;100.0
40013;BME280;37387;42.672;23.334;2022-08-21T02:30:05;939.8;;;18.0;100.0
40013;BME280;37387;42.672;23.334;2022-08-21T02:35:05;939.8;;;18.1;100.0
40013;BME280;37387;42.672;23.334;2022-08-21T02:37:05;939.9;;;18.0;100.0
40013;BME280;37387;42.672;23.334;2022-08-21T02:39:05;939.8;;;17.9;100.0
40013;BME280;37387;42.672;23.334;2022-08-21T02:43:05;939.8;;;18.0;100.0
40013;BME280;37387;42.672;23.334;2022-08-21T02:50:05;939.8;;;18.1;100.0
40013;BME280;37387;42.672;23.334;2022-08-21T02:54:05;939.8;;;18.0;100.0
40013;BME280;37387;42.672;23.334;2022-08-21T02:55:05;939.8;;;18.1;100.0
40013;BME280;37387;42.672;23.334;2022-08-21T03:09:05;939.9;;;18.0;100.0
40013;BME280;37387;42.672;23.334;2022-08-21T03:18:05;939.8;;;18.1;100.0
40013;BME280;37387;42.672;23.334;2022-08-21T03:21:05;939.7;;;18.2;100.0
40013;BME280;37387;42.672;23.334;2022-08-21T03:22:05;939.8;;;18.1;100.0
40013;BME280;37387;42.672;23.334;2022-08-21T03:23:05;939.8;;;18.0;100.0
40013;BME280;37387;42.672;23.334;2022-08-21T03:24:05;939.9;;;18.1;100.0
40013;BME280;37387;42.672;23.334;2022-08-21T03:26:05;939.9;;;18.0;100.0
40013;BME280;37387;42.672;23.334;2022-08-21T03:34:05;939.8;;;17.9;100.0
40013;BME280;37387;42.672;23.334;2022-08-21T03:38:05;939.9;;;17.8;100.0
40013;BME280;37387;42.672;23.334;2022-08-21T03:40:05;939.8;;;17.7;100.0
40013;BME280;37387;42.672;23.334;2022-08-21T03:43:05;939.7;;;17.6;100.0
40013;BME280;37387;42.672;23.334;2022-08-21T03:50:05;939.8;;;17.5;100.0
40013;BME280;37387;42.672;23.334;2022-08-21T03:51:05;939.8;;;17.4;100.0
40013;BME280;37387;42.672;23.334;2022-08-21T04:02:05;940.1;;;17.5;100.0
40013;BME280;37387;42.672;23.334;2022-08-21T04:06:05;940.1;;;17.4;100.0
40013;BME280;37387;42.672;23.334;2022-08-21T04:07:05;940.0;;;17.5;100.0
40013;BME280;37387;42.672;23.334;2022-08-21T04:11:05;940.1;;;17.6;100.0
40013;BME280;37387;42.672;23.334;2022-08-21T04:12:05;940.1;;;17.5;100.0
40013;BME280;37387;42.672;23.334;2022-08-21T04:13:05;940.1;;;17.6;100.0
40013;BME280;37387;42.672;23.334;2022-08-21T04:19:05;940.0;;;17.5;100.0
40013;BME280;37387;42.672;23.334;2022-08-21T04:20:05;940.0;;;17.6;100.0
40013;BME280;37387;42.672;23.334;2022-08-21T04:23:05;940.0;;;17.7;100.0
40013;BME280;37387;42.672;23.334;2022-08-21T04:24:05;940.0;;;17.8;100.0
40013;BME280;37387;42.672;23.334;2022-08-21T04:27:05;939.9;;;17.9;100.0
40013;BME280;37387;42.672;23.334;2022-08-21T04:28:05;940.0;;;18.0;100.0
40013;BME280;37387;42.672;23.334;2022-08-21T04:29:05;940.0;;;17.8;100.0
40013;BME280;37387;42.672;23.334;2022-08-21T04:39:05;940.0;;;17.6;100.0
40013;BME280;37387;42.672;23.334;2022-08-21T04:40:05;940.0;;;17.7;100.0
40013;BME280;37387;42.672;23.334;2022-08-21T04:42:05;940.0;;;17.6;100.0
40013;BME280;37387;42.672;23.334;2022-08-21T04:43:07;940.0;;;17.7;100.0
40013;BME280;37387;42.672;23.334;2022-08-21T04:44:05;940.0;;;17.5;100.0
40013;BME280;37387;42.672;23.334;2022-08-21T04:46:05;940.0;;;17.6;100.0
40013;BME280;37387;42.672;23.334;2022-08-21T04:47:05;940.0;;;17.7;100.0
40013;BME280;37387;42.672;23.334;2022-08-21T04:48:06;940.0;;;17.8;100.0
40013;BME280;37387;42.672;23.334;2022-08-21T04:49:05;940.0;;;17.9;100.0
40013;BME280;37387;42.672;23.334;2022-08-21T04:50:05;940.0;;;18.0;100.0
40013;BME280;37387;42.672;23.334;2022-08-21T04:52:05;940.0;;;18.2;100.0
40013;BME280;37387;42.672;23.334;2022-08-21T04:53:05;940.0;;;18.5;100.0
40013;BME280;37387;42.672;23.334;2022-08-21T04:54:06;939.9;;;18.9;100.0
40013;BME280;37387;42.672;23.334;2022-08-21T04:55:05;939.9;;;19.3;100.0
40013;BME280;37387;42.672;23.334;2022-08-21T04:56:05;939.9;;;19.8;100.0
40013;BME280;37387;42.672;23.334;2022-08-21T04:57:05;939.9;;;20.1;100.0
40013;BME280;37387;42.672;23.334;2022-08-21T04:58:05;939.7;;;20.4;100.0
40013;BME280;37387;42.672;23.334;2022-08-21T04:59:05;939.7;;;20.5;100.0
40013;BME280;37387;42.672;23.334;2022-08-21T05:00:05;939.6;;;20.6;100.0
40013;BME280;37387;42.672;23.334;2022-08-21T05:02:05;939.6;;;20.9;100.0
40013;BME280;37387;42.672;23.334;2022-08-21T05:03:05;939.5;;;20.7;100.0
40013;BME280;37387;42.672;23.334;2022-08-21T05:04:05;939.6;;;21.6;100.0
40013;BME280;37387;42.672;23.334;2022-08-21T05:05:05;939.6;;;22.4;100.0
40013;BME280;37387;42.672;23.334;2022-08-21T05:06:05;939.5;;;23.4;98.3
40013;BME280;37387;42.672;23.334;2022-08-21T05:07:05;939.5;;;24.1;91.4
40013;BME280;37387;42.672;23.334;2022-08-21T05:08:05;939.5;;;24.2;84.9
40013;BME280;37387;42.672;23.334;2022-08-21T05:09:05;939.5;;;24.6;81.8
40013;BME280;37387;42.672;23.334;2022-08-21T05:10:05;939.5;;;24.7;80.5
40013;BME280;37387;42.672;23.334;2022-08-21T05:11:05;939.5;;;24.6;78.0
40013;BME280;37387;42.672;23.334;2022-08-21T05:12:05;939.5;;;25.1;77.9
40013;BME280;37387;42.672;23.334;2022-08-21T05:14:05;939.5;;;25.4;76.1
40013;BME280;37387;42.672;23.334;2022-08-21T05:15:05;939.6;;;25.7;75.8
40013;BME280;37387;42.672;23.334;2022-08-21T05:16:05;939.6;;;25.9;72.8
40013;BME280;37387;42.672;23.334;2022-08-21T05:17:05;939.6;;;26.3;72.8
40013;BME280;37387;42.672;23.334;2022-08-21T05:18:05;939.6;;;26.5;69.6
40013;BME280;37387;42.672;23.334;2022-08-21T05:19:05;939.6;;;26.1;69.2
40013;BME280;37387;42.672;23.334;2022-08-21T05:20:05;939.6;;;26.4;70.2
40013;BME280;37387;42.672;23.334;2022-08-21T05:21:05;939.6;;;26.3;68.7
40013;BME280;37387;42.672;23.334;2022-08-21T05:22:05;939.6;;;25.9;69.2
40013;BME280;37387;42.672;23.334;2022-08-21T05:23:06;939.5;;;25.4;69.9
40013;BME280;37387;42.672;23.334;2022-08-21T05:24:05;939.5;;;25.1;73.6
40013;BME280;37387;42.672;23.334;2022-08-21T05:25:06;939.5;;;25.0;73.6
40013;BME280;37387;42.672;23.334;2022-08-21T05:26:05;939.5;;;25.4;72.6
40013;BME280;37387;42.672;23.334;2022-08-21T05:27:04;939.5;;;25.7;72.6
40013;BME280;37387;42.672;23.334;2022-08-21T05:29:05;939.6;;;25.0;71.3
40013;BME280;37387;42.672;23.334;2022-08-21T05:30:05;939.6;;;24.4;77.8
40013;BME280;37387;42.672;23.334;2022-08-21T05:31:05;939.6;;;24.3;77.8
40013;BME280;37387;42.672;23.334;2022-08-21T05:32:07;939.6;;;24.5;78.3
40013;BME280;37387;42.672;23.334;2022-08-21T05:33:05;939.5;;;24.3;78.4
40013;BME280;37387;42.672;23.334;2022-08-21T05:34:04;939.5;;;23.8;78.5
40013;BME280;37387;42.672;23.334;2022-08-21T05:35:05;939.5;;;23.6;79.6
40013;BME280;37387;42.672;23.334;2022-08-21T05:37:05;939.5;;;23.3;81.8
40013;BME280;37387;42.672;23.334;2022-08-21T05:38:05;939.5;;;23.6;83.2
40013;BME280;37387;42.672;23.334;2022-08-21T05:39:05;939.4;;;24.4;83.4
40013;BME280;37387;42.672;23.334;2022-08-21T05:40:05;939.5;;;25.0;74.0
40013;BME280;37387;42.672;23.334;2022-08-21T05:41:05;939.5;;;25.7;74.0
40013;BME280;37387;42.672;23.334;2022-08-21T05:42:05;939.5;;;26.0;68.0
40013;BME280;37387;42.672;23.334;2022-08-21T05:43:05;939.5;;;26.6;68.0
40013;BME280;37387;42.672;23.334;2022-08-21T05:44:04;939.5;;;27.0;64.8
40013;BME280;37387;42.672;23.334;2022-08-21T05:45:05;939.5;;;27.3;64.1
40013;BME280;37387;42.672;23.334;2022-08-21T05:46:06;939.5;;;27.2;62.0
40013;BME280;37387;42.672;23.334;2022-08-21T05:47:05;939.5;;;27.5;63.2
40013;BME280;37387;42.672;23.334;2022-08-21T05:48:05;939.4;;;27.2;62.8
40013;BME280;37387;42.672;23.334;2022-08-21T05:50:05;939.4;;;26.2;63.6
40013;BME280;37387;42.672;23.334;2022-08-21T05:51:05;939.4;;;26.0;67.5
40013;BME280;37387;42.672;23.334;2022-08-21T05:52:05;939.4;;;25.6;68.9
40013;BME280;37387;42.672;23.334;2022-08-21T05:53:05;939.3;;;25.7;68.7
40013;BME280;37387;42.672;23.334;2022-08-21T05:54:04;939.3;;;26.1;70.1
40013;BME280;37387;42.672;23.334;2022-08-21T05:55:05;939.3;;;26.0;66.5
40013;BME280;37387;42.672;23.334;2022-08-21T05:56:05;939.3;;;26.1;67.7
40013;BME280;37387;42.672;23.334;2022-08-21T05:57:04;939.4;;;25.5;68.7
40013;BME280;37387;42.672;23.334;2022-08-21T05:58:05;939.3;;;25.1;71.7
40013;BME280;37387;42.672;23.334;2022-08-21T05:59:05;939.3;;;24.5;74.5
40013;BME280;37387;42.672;23.334;2022-08-21T06:00:04;939.3;;;23.8;80.8
40013;BME280;37387;42.672;23.334;2022-08-21T06:01:05;939.3;;;23.7;80.8
40013;BME280;37387;42.672;23.334;2022-08-21T06:02:05;939.3;;;22.8;82.3
40013;BME280;37387;42.672;23.334;2022-08-21T06:03:09;939.3;;;22.6;89.9
40013;BME280;37387;42.672;23.334;2022-08-21T06:04:05;939.3;;;22.5;89.9
40013;BME280;37387;42.672;23.334;2022-08-21T06:05:05;939.4;;;22.8;91.3
40013;BME280;37387;42.672;23.334;2022-08-21T06:06:05;939.4;;;23.0;89.6
40013;BME280;37387;42.672;23.334;2022-08-21T06:07:05;939.4;;;22.7;89.6
40013;BME280;37387;42.672;23.334;2022-08-21T06:08:05;939.4;;;22.6;90.7
40013;BME280;37387;42.672;23.334;2022-08-21T06:09:05;939.4;;;22.5;91.3
40013;BME280;37387;42.672;23.334;2022-08-21T06:10:05;939.4;;;22.4;91.6
40013;BME280;37387;42.672;23.334;2022-08-21T06:11:05;939.4;;;22.5;92.0
40013;BME280;37387;42.672;23.334;2022-08-21T06:12:05;939.3;;;22.7;91.8
40013;BME280;37387;42.672;23.334;2022-08-21T06:13:05;939.3;;;23.0;88.7
40013;BME280;37387;42.672;23.334;2022-08-21T06:14:05;939.3;;;23.4;88.7
40013;BME280;37387;42.672;23.334;2022-08-21T06:15:05;939.3;;;23.7;86.3
40013;BME280;37387;42.672;23.334;2022-08-21T06:18:05;939.3;;;23.8;83.7
40013;BME280;37387;42.672;23.334;2022-08-21T06:19:05;939.4;;;24.2;79.5
40013;BME280;37387;42.672;23.334;2022-08-21T06:20:05;939.4;;;23.9;80.9
40013;BME280;37387;42.672;23.334;2022-08-21T06:21:05;939.4;;;23.8;80.9
40013;BME280;37387;42.672;23.334;2022-08-21T06:22:05;939.4;;;23.9;81.7
40013;BME280;37387;42.672;23.334;2022-08-21T06:23:05;939.4;;;23.8;82.7
40013;BME280;37387;42.672;23.334;2022-08-21T06:24:05;939.3;;;24.0;81.7
40013;BME280;37387;42.672;23.334;2022-08-21T06:25:05;939.3;;;24.5;81.7
40013;BME280;37387;42.672;23.334;2022-08-21T06:26:05;939.3;;;25.3;79.9
40013;BME280;37387;42.672;23.334;2022-08-21T06:27:05;939.3;;;25.9;74.6
40013;BME280;37387;42.672;23.334;2022-08-21T06:28:05;939.4;;;26.7;67.0
40013;BME280;37387;42.672;23.334;2022-08-21T06:29:05;939.4;;;27.4;67.0
40013;BME280;37387;42.672;23.334;2022-08-21T06:30:05;939.4;;;27.1;63.2
40013;BME280;37387;42.672;23.334;2022-08-21T06:31:09;939.4;;;26.4;62.7
40013;BME280;37387;42.672;23.334;2022-08-21T06:32:05;939.5;;;27.0;66.5
40013;BME280;37387;42.672;23.334;2022-08-21T06:33:05;939.4;;;27.3;64.1
40013;BME280;37387;42.672;23.334;2022-08-21T06:34:05;939.4;;;27.5;64.1
40013;BME280;37387;42.672;23.334;2022-08-21T06:35:05;939.4;;;28.2;62.8
40013;BME280;37387;42.672;23.334;2022-08-21T06:36:05;939.4;;;28.8;60.9
40013;BME280;37387;42.672;23.334;2022-08-21T06:37:05;939.5;;;29.4;56.5
40013;BME280;37387;42.672;23.334;2022-08-21T06:38:05;939.5;;;29.9;56.5
40013;BME280;37387;42.672;23.334;2022-08-21T06:40:05;939.5;;;28.9;54.2
40013;BME280;37387;42.672;23.334;2022-08-21T06:41:05;939.4;;;27.4;55.3
40013;BME280;37387;42.672;23.334;2022-08-21T06:42:05;939.4;;;26.0;67.4
40013;BME280;37387;42.672;23.334;2022-08-21T06:43:05;939.4;;;26.2;67.5
40013;BME280;37387;42.672;23.334;2022-08-21T06:44:05;939.4;;;26.5;67.5
40013;BME280;37387;42.672;23.334;2022-08-21T06:45:05;939.4;;;27.5;67.1
40013;BME280;37387;42.672;23.334;2022-08-21T06:46:05;939.5;;;28.6;58.6
40013;BME280;37387;42.672;23.334;2022-08-21T06:47:05;939.5;;;28.8;58.6
40013;BME280;37387;42.672;23.334;2022-08-21T06:48:05;939.5;;;28.1;56.2
40013;BME280;37387;42.672;23.334;2022-08-21T06:49:05;939.5;;;28.0;58.7
40013;BME280;37387;42.672;23.334;2022-08-21T06:50:05;939.5;;;26.4;57.5
40013;BME280;37387;42.672;23.334;2022-08-21T06:51:05;939.4;;;25.9;61.3
40013;BME280;37387;42.672;23.334;2022-08-21T06:53:05;939.4;;;26.8;64.8
40013;BME280;37387;42.672;23.334;2022-08-21T06:54:05;939.4;;;27.5;62.7
40013;BME280;37387;42.672;23.334;2022-08-21T06:55:05;939.4;;;27.7;60.7
40013;BME280;37387;42.672;23.334;2022-08-21T06:56:05;939.4;;;27.6;59.6
40013;BME280;37387;42.672;23.334;2022-08-21T06:57:05;939.4;;;28.5;58.8
40013;BME280;37387;42.672;23.334;2022-08-21T06:58:05;939.4;;;29.0;54.9
40013;BME280;37387;42.672;23.334;2022-08-21T06:59:05;939.5;;;29.6;52.7
40013;BME280;37387;42.672;23.334;2022-08-21T07:00:05;939.5;;;29.0;52.7
40013;BME280;37387;42.672;23.334;2022-08-21T07:01:05;939.5;;;28.3;56.8
40013;BME280;37387;42.672;23.334;2022-08-21T07:02:05;939.6;;;28.9;56.8
40013;BME280;37387;42.672;23.334;2022-08-21T07:03:05;939.6;;;29.0;54.8
40013;BME280;37387;42.672;23.334;2022-08-21T07:04:05;939.6;;;27.7;54.8
40013;BME280;37387;42.672;23.334;2022-08-21T07:05:05;939.5;;;27.2;59.4
40013;BME280;37387;42.672;23.334;2022-08-21T07:06:05;939.6;;;25.9;61.9
40013;BME280;37387;42.672;23.334;2022-08-21T07:07:05;939.5;;;25.3;64.8
40013;BME280;37387;42.672;23.334;2022-08-21T07:08:05;939.5;;;24.5;67.9
40013;BME280;37387;42.672;23.334;2022-08-21T07:09:05;939.4;;;23.9;71.4
40013;BME280;37387;42.672;23.334;2022-08-21T07:10:05;939.4;;;24.1;76.3
40013;BME280;37387;42.672;23.334;2022-08-21T07:11:07;939.4;;;25.4;76.3
40013;BME280;37387;42.672;23.334;2022-08-21T07:12:05;939.4;;;26.3;70.3
40013;BME280;37387;42.672;23.334;2022-08-21T07:13:05;939.4;;;27.0;62.2
40013;BME280;37387;42.672;23.334;2022-08-21T07:14:05;939.5;;;27.9;58.6
40013;BME280;37387;42.672;23.334;2022-08-21T07:15:05;939.5;;;29.0;55.1
40013;BME280;37387;42.672;23.334;2022-08-21T07:16:05;939.5;;;30.1;55.1
40013;BME280;37387;42.672;23.334;2022-08-21T07:17:05;939.5;;;31.2;53.7
40013;BME280;37387;42.672;23.334;2022-08-21T07:18:05;939.6;;;31.8;50.1
40013;BME280;37387;42.672;23.334;2022-08-21T07:19:05;939.6;;;31.3;49.2
40013;BME280;37387;42.672;23.334;2022-08-21T07:20:05;939.6;;;30.7;50.5
40013;BME280;37387;42.672;23.334;2022-08-21T07:21:05;939.6;;;29.9;50.5
40013;BME280;37387;42.672;23.334;2022-08-21T07:22:05;939.6;;;28.9;52.9
40013;BME280;37387;42.672;23.334;2022-08-21T07:23:06;939.5;;;29.0;56.2
40013;BME280;37387;42.672;23.334;2022-08-21T07:25:05;939.5;;;29.1;56.9
40013;BME280;37387;42.672;23.334;2022-08-21T07:26:05;939.5;;;29.0;57.6
40013;BME280;37387;42.672;23.334;2022-08-21T07:27:05;939.5;;;28.9;57.6
40013;BME280;37387;42.672;23.334;2022-08-21T07:28:05;939.5;;;28.1;58.1
40013;BME280;37387;42.672;23.334;2022-08-21T07:29:05;939.4;;;26.7;64.2
40013;BME280;37387;42.672;23.334;2022-08-21T07:30:05;939.4;;;26.2;67.1
40013;BME280;37387;42.672;23.334;2022-08-21T07:31:05;939.4;;;26.3;67.0
40013;BME280;37387;42.672;23.334;2022-08-21T07:32:05;939.4;;;26.9;67.0
40013;BME280;37387;42.672;23.334;2022-08-21T07:33:05;939.4;;;26.7;64.8
40013;BME280;37387;42.672;23.334;2022-08-21T07:34:05;939.3;;;27.2;65.1
40013;BME280;37387;42.672;23.334;2022-08-21T07:35:05;939.3;;;27.8;64.3
40013;BME280;37387;42.672;23.334;2022-08-21T07:36:05;939.3;;;28.3;61.8
40013;BME280;37387;42.672;23.334;2022-08-21T07:37:05;939.3;;;27.6;59.6
40013;BME280;37387;42.672;23.334;2022-08-21T07:38:05;939.2;;;27.1;61.1
40013;BME280;37387;42.672;23.334;2022-08-21T07:40:05;939.2;;;27.3;63.0
40013;BME280;37387;42.672;23.334;2022-08-21T07:41:07;939.3;;;27.9;63.0
40013;BME280;37387;42.672;23.334;2022-08-21T07:42:05;939.3;;;28.1;62.1
40013;BME280;37387;42.672;23.334;2022-08-21T07:43:05;939.3;;;28.5;60.0
40013;BME280;37387;42.672;23.334;2022-08-21T07:44:05;939.3;;;29.4;56.4
40013;BME280;37387;42.672;23.334;2022-08-21T07:45:05;939.3;;;30.6;52.1
40013;BME280;37387;42.672;23.334;2022-08-21T07:46:05;939.3;;;31.0;50.4
40013;BME280;37387;42.672;23.334;2022-08-21T07:47:05;939.3;;;32.5;50.4
40013;BME280;37387;42.672;23.334;2022-08-21T07:48:05;939.3;;;33.0;45.6
40013;BME280;37387;42.672;23.334;2022-08-21T07:49:05;939.3;;;33.5;45.6
40013;BME280;37387;42.672;23.334;2022-08-21T07:50:05;939.3;;;33.3;45.0
40013;BME280;37387;42.672;23.334;2022-08-21T07:51:07;939.3;;;32.9;44.7
40013;BME280;37387;42.672;23.334;2022-08-21T07:52:05;939.3;;;32.7;46.2
40013;BME280;37387;42.672;23.334;2022-08-21T07:53:05;939.3;;;31.5;46.1
40013;BME280;37387;42.672;23.334;2022-08-21T07:54:05;939.3;;;30.0;48.8
40013;BME280;37387;42.672;23.334;2022-08-21T07:55:05;939.2;;;29.6;51.8
40013;BME280;37387;42.672;23.334;2022-08-21T07:56:05;939.2;;;29.7;52.2
40013;BME280;37387;42.672;23.334;2022-08-21T07:57:05;939.2;;;28.3;52.4
40013;BME280;37387;42.672;23.334;2022-08-21T07:58:05;939.1;;;27.3;56.1
40013;BME280;37387;42.672;23.334;2022-08-21T07:59:05;939.1;;;27.6;60.5
40013;BME280;37387;42.672;23.334;2022-08-21T08:00:05;939.1;;;28.2;60.7
40013;BME280;37387;42.672;23.334;2022-08-21T08:01:05;939.2;;;29.0;58.3
40013;BME280;37387;42.672;23.334;2022-08-21T08:02:05;939.2;;;29.6;56.4
40013;BME280;37387;42.672;23.334;2022-08-21T08:03:05;939.2;;;30.8;54.3
40013;BME280;37387;42.672;23.334;2022-08-21T08:04:05;939.3;;;31.6;48.3
40013;BME280;37387;42.672;23.334;2022-08-21T08:06:05;939.3;;;31.5;47.9
40013;BME280;37387;42.672;23.334;2022-08-21T08:08:05;939.2;;;29.8;51.6
40013;BME280;37387;42.672;23.334;2022-08-21T08:09:05;939.2;;;28.9;54.5
40013;BME280;37387;42.672;23.334;2022-08-21T08:10:05;939.2;;;28.7;54.5
40013;BME280;37387;42.672;23.334;2022-08-21T08:11:05;939.2;;;28.9;55.2
40013;BME280;37387;42.672;23.334;2022-08-21T08:12:05;939.2;;;28.1;56.8
40013;BME280;37387;42.672;23.334;2022-08-21T08:13:05;939.2;;;28.5;56.8
40013;BME280;37387;42.672;23.334;2022-08-21T08:14:05;939.2;;;28.1;56.6
40013;BME280;37387;42.672;23.334;2022-08-21T08:16:05;939.2;;;27.6;57.6
40013;BME280;37387;42.672;23.334;2022-08-21T08:17:05;939.1;;;27.2;59.2
40013;BME280;37387;42.672;23.334;2022-08-21T08:18:05;939.1;;;26.6;59.5
40013;BME280;37387;42.672;23.334;2022-08-21T08:19:05;939.1;;;26.7;60.9
40013;BME280;37387;42.672;23.334;2022-08-21T08:20:05;939.1;;;26.6;60.9
40013;BME280;37387;42.672;23.334;2022-08-21T08:21:05;939.1;;;26.2;63.1
40013;BME280;37387;42.672;23.334;2022-08-21T08:22:11;939.1;;;26.1;63.1
40013;BME280;37387;42.672;23.334;2022-08-21T08:23:05;939.1;;;25.9;64.5
40013;BME280;37387;42.672;23.334;2022-08-21T08:25:06;939.1;;;26.0;65.2
40013;BME280;37387;42.672;23.334;2022-08-21T08:26:05;939.1;;;26.5;64.7
40013;BME280;37387;42.672;23.334;2022-08-21T08:27:05;939.1;;;26.3;63.2
40013;BME280;37387;42.672;23.334;2022-08-21T08:28:05;939.1;;;25.7;63.8
40013;BME280;37387;42.672;23.334;2022-08-21T08:29:05;939.1;;;26.0;65.0
40013;BME280;37387;42.672;23.334;2022-08-21T08:30:06;939.1;;;26.2;65.0
40013;BME280;37387;42.672;23.334;2022-08-21T08:31:05;939.1;;;26.6;64.6
40013;BME280;37387;42.672;23.334;2022-08-21T08:32:05;939.2;;;26.9;61.9
40013;BME280;37387;42.672;23.334;2022-08-21T08:33:05;939.2;;;27.5;61.9
40013;BME280;37387;42.672;23.334;2022-08-21T08:35:05;939.1;;;27.1;59.4
40013;BME280;37387;42.672;23.334;2022-08-21T08:36:05;939.1;;;27.2;60.5
40013;BME280;37387;42.672;23.334;2022-08-21T08:37:05;939.1;;;26.8;60.5
40013;BME280;37387;42.672;23.334;2022-08-21T08:38:05;939.1;;;27.1;60.3
40013;BME280;37387;42.672;23.334;2022-08-21T08:39:05;939.1;;;26.6;60.3
40013;BME280;37387;42.672;23.334;2022-08-21T08:40:05;939.1;;;25.5;60.8
40013;BME280;37387;42.672;23.334;2022-08-21T08:42:06;939.1;;;25.7;65.9
40013;BME280;37387;42.672;23.334;2022-08-21T08:43:05;939.1;;;26.3;65.9
40013;BME280;37387;42.672;23.334;2022-08-21T08:44:05;939.1;;;26.0;64.0
40013;BME280;37387;42.672;23.334;2022-08-21T08:45:06;939.2;;;26.4;65.0
40013;BME280;37387;42.672;23.334;2022-08-21T08:46:06;939.2;;;26.6;62.5
40013;BME280;37387;42.672;23.334;2022-08-21T08:47:05;939.2;;;26.5;62.5
40013;BME280;37387;42.672;23.334;2022-08-21T08:48:05;939.2;;;26.6;61.9
40013;BME280;37387;42.672;23.334;2022-08-21T08:49:06;939.2;;;26.4;62.1
40013;BME280;37387;42.672;23.334;2022-08-21T08:50:06;939.2;;;26.2;62.3
40013;BME280;37387;42.672;23.334;2022-08-21T08:51:06;939.2;;;26.8;63.6
40013;BME280;37387;42.672;23.334;2022-08-21T08:52:05;939.2;;;27.6;62.4
40013;BME280;37387;42.672;23.334;2022-08-21T08:53:06;939.1;;;28.1;58.5
40013;BME280;37387;42.672;23.334;2022-08-21T08:54:07;939.1;;;27.7;58.5
40013;BME280;37387;42.672;23.334;2022-08-21T08:55:06;939.1;;;28.1;57.9
40013;BME280;37387;42.672;23.334;2022-08-21T08:56:05;939.1;;;29.0;57.3
40013;BME280;37387;42.672;23.334;2022-08-21T08:58:05;939.1;;;28.9;54.3
40013;BME280;37387;42.672;23.334;2022-08-21T08:59:05;939.1;;;29.2;54.4
40013;BME280;37387;42.672;23.334;2022-08-21T09:00:06;939.1;;;29.4;53.2
40013;BME280;37387;42.672;23.334;2022-08-21T09:01:05;939.1;;;29.2;53.5
40013;BME280;37387;42.672;23.334;2022-08-21T09:02:05;939.1;;;29.0;53.3
40013;BME280;37387;42.672;23.334;2022-08-21T09:03:05;939.1;;;28.8;54.2
40013;BME280;37387;42.672;23.334;2022-08-21T09:04:05;939.0;;;29.4;53.5
40013;BME280;37387;42.672;23.334;2022-08-21T09:05:05;939.0;;;29.6;52.0
40013;BME280;37387;42.672;23.334;2022-08-21T09:06:06;939.1;;;30.1;52.0
40013;BME280;37387;42.672;23.334;2022-08-21T09:07:08;939.1;;;30.7;50.7
40013;BME280;37387;42.672;23.334;2022-08-21T09:08:11;939.0;;;30.5;49.6
40013;BME280;37387;42.672;23.334;2022-08-21T09:09:08;939.0;;;30.2;49.2
40013;BME280;37387;42.672;23.334;2022-08-21T09:10:10;938.9;;;28.7;49.4